Main page
METAR-TAF:

METAR-TAF

Airports :

Sarzana, Italy

Aeroporto di Sarzana-Luni

latitude: 44-05N, longitude: 009-59E, elevation: 9 m

Current weather observation

The report was made 8 hours and 37 minutes ago, at 13:55 UTC
Wind 4 kt from the South/Southwest
Temperature 25°C
Humidity 39%
Pressure 1018 hPa
Visibility 10 km or more
no clouds below 1500 m and no cumulonimbus

METAR: LIQW 231355Z 20004KT CAVOK 25/10 Q1018 RMK FEW FEW200 VIS MIN 9999 WIND THR18 21003KT BLU

Time: 00:32 (22:32 UTC)


TAF: missing

Weather observations and forecasts of more than 4000 airports (METAR and TAF reports).

The available stations are represented by yellow and red dots on the map.

Hover mouse over dot to see the name of the station.

Then click to see weather observations and forecasts.

To change the map : click on the green buttons with a black cross to zoom in, on the green button with a dash to zoom out, or on the green arrows for adjacent maps.


METAR-TAF: